createdAt,value
2018-09-25T00:00:02.382Z,3.53
2018-09-25T00:02:39.157Z,4.10
2018-09-25T00:05:15.894Z,4.93
2018-09-25T00:07:52.851Z,4.77
2018-09-25T00:10:30.433Z,4.77
2018-09-25T00:13:07.710Z,4.17
2018-09-25T00:15:45.080Z,4.63
2018-09-25T00:18:21.988Z,5.27
2018-09-25T00:20:59.003Z,4.77
2018-09-25T00:23:36.301Z,5.00
2018-09-25T00:26:14.261Z,5.37
2018-09-25T00:28:51.682Z,6.23
2018-09-25T00:31:28.723Z,4.70
2018-09-25T00:34:06.909Z,7.13
2018-09-25T00:36:44.157Z,4.87
2018-09-25T00:39:21.397Z,4.70
2018-09-25T00:41:59.168Z,4.47
2018-09-25T00:44:37.146Z,5.70
2018-09-25T00:47:16.550Z,5.97
2018-09-25T00:49:56.827Z,5.13
2018-09-25T00:52:34.356Z,7.80
2018-09-25T00:55:11.752Z,6.27
2018-09-25T00:57:50.196Z,5.37
2018-09-25T01:00:27.056Z,6.60
2018-09-25T01:03:07.887Z,6.27
2018-09-25T01:05:44.333Z,5.20
2018-09-25T01:08:21.750Z,6.37
2018-09-25T01:11:00.034Z,5.53
2018-09-25T01:13:40.210Z,5.90
2018-09-25T01:16:18.104Z,14.40
2018-09-25T01:18:56.113Z,5.23
2018-09-25T01:21:36.827Z,4.50
2018-09-25T01:24:16.100Z,4.23
2018-09-25T01:26:53.069Z,3.27
2018-09-25T01:29:29.616Z,4.03
2018-09-25T01:32:06.537Z,4.20
2018-09-25T01:34:44.342Z,3.80
2018-09-25T01:37:23.288Z,4.40
2018-09-25T01:40:04.018Z,4.70
2018-09-25T01:42:40.942Z,5.90
2018-09-25T01:45:19.922Z,7.10
2018-09-25T01:47:56.658Z,6.77
2018-09-25T01:50:34.716Z,6.07
2018-09-25T01:53:11.558Z,5.80
2018-09-25T01:56:21.145Z,6.80
2018-09-25T01:59:01.763Z,7.00
2018-09-25T02:01:39.842Z,7.17
2018-09-25T02:04:17.442Z,8.77
2018-09-25T02:06:55.144Z,7.97
2018-09-25T02:09:32.794Z,7.00
2018-09-25T02:12:11.148Z,7.47
2018-09-25T02:14:48.941Z,7.40
2018-09-25T02:17:27.880Z,6.63
2018-09-25T02:20:05.634Z,6.33
2018-09-25T02:22:43.850Z,6.07
2018-09-25T02:25:22.948Z,5.60
2018-09-25T02:28:02.542Z,7.17
2018-09-25T02:30:41.791Z,6.77
2018-09-25T02:33:19.848Z,5.87
2018-09-25T02:35:57.598Z,6.47
2018-09-25T02:38:35.524Z,8.37
2018-09-25T02:41:13.145Z,14.50
2018-09-25T02:43:50.685Z,13.37
2018-09-25T02:46:28.765Z,10.70
2018-09-25T02:49:06.345Z,8.57
2018-09-25T02:51:47.480Z,7.33
2018-09-25T02:54:25.549Z,7.80
2018-09-25T02:57:03.064Z,8.03
2018-09-25T02:59:40.556Z,8.20
2018-09-25T03:02:19.596Z,6.90
2018-09-25T03:04:56.961Z,7.10
2018-09-25T03:07:34.808Z,5.57
2018-09-25T03:10:12.411Z,6.60
2018-09-25T03:12:50.275Z,6.13
2018-09-25T03:15:28.991Z,7.13
2018-09-25T03:18:16.525Z,6.43
2018-09-25T03:20:55.860Z,7.57
2018-09-25T03:23:34.092Z,5.87
2018-09-25T03:29:33.039Z,5.57
2018-09-25T03:32:10.881Z,5.37
2018-09-25T03:34:48.098Z,5.27
2018-09-25T03:37:25.240Z,5.43
2018-09-25T03:40:02.079Z,5.27
2018-09-25T03:42:39.289Z,6.23
2018-09-25T03:45:16.561Z,5.60
2018-09-25T03:47:53.258Z,5.77
2018-09-25T03:50:30.146Z,5.77
2018-09-25T03:53:07.393Z,5.80
2018-09-25T03:55:44.552Z,5.37
2018-09-25T03:58:21.266Z,5.73
2018-09-25T04:01:00.565Z,5.33
2018-09-25T04:03:37.463Z,5.33
2018-09-25T04:06:15.100Z,5.83
2018-09-25T04:08:52.086Z,5.43
2018-09-25T04:11:30.507Z,5.53
2018-09-25T04:14:11.150Z,5.40
2018-09-25T04:16:50.557Z,5.90
2018-09-25T04:19:29.829Z,7.83
2018-09-25T04:22:07.014Z,5.90
2018-09-25T04:24:45.257Z,6.93
2018-09-25T04:27:22.653Z,7.03
2018-09-25T04:29:59.629Z,6.03
2018-09-25T04:32:36.589Z,6.27
2018-09-25T04:35:14.131Z,6.00
2018-09-25T04:37:51.060Z,6.10
2018-09-25T04:40:28.221Z,6.37
2018-09-25T04:43:05.534Z,6.63
2018-09-25T04:45:44.014Z,5.77
2018-09-25T04:48:24.829Z,6.07
2018-09-25T04:51:02.106Z,5.73
2018-09-25T04:53:40.576Z,6.57
2018-09-25T04:56:17.793Z,7.10
2018-09-25T04:58:55.218Z,5.90
2018-09-25T05:01:36.178Z,5.97
2018-09-25T05:04:13.525Z,6.77
2018-09-25T05:06:50.670Z,6.53
2018-09-25T05:09:29.466Z,7.77
2018-09-25T05:12:09.840Z,7.67
2018-09-25T05:14:49.294Z,7.57
2018-09-25T05:17:33.272Z,8.23
2018-09-25T05:20:12.518Z,8.17
2018-09-25T05:22:53.424Z,8.83
2018-09-25T05:25:31.477Z,8.70
2018-09-25T05:31:37.084Z,10.17
2018-09-25T05:34:14.331Z,8.47
2018-09-25T05:36:51.407Z,9.57
2018-09-25T05:39:29.554Z,9.67
2018-09-25T05:42:06.945Z,8.53
2018-09-25T05:44:44.228Z,9.47
2018-09-25T05:47:21.620Z,9.50
2018-09-25T05:53:20.088Z,9.10
2018-09-25T05:59:17.654Z,10.10
2018-09-25T06:01:54.807Z,10.03
2018-09-25T06:04:31.906Z,10.23
2018-09-25T06:07:09.246Z,9.90
2018-09-25T06:09:46.413Z,11.20
2018-09-25T06:12:23.398Z,10.87
2018-09-25T06:18:32.399Z,10.90
2018-09-25T06:21:09.789Z,10.70
2018-09-25T06:23:47.412Z,10.93
2018-09-25T06:26:25.876Z,9.47
2018-09-25T06:29:03.436Z,9.27
2018-09-25T06:31:41.445Z,8.90
2018-09-25T06:34:19.676Z,8.50
2018-09-25T06:36:58.674Z,8.53
2018-09-25T06:39:37.358Z,8.93
2018-09-25T06:42:14.976Z,9.27
2018-09-25T06:44:52.773Z,8.57
2018-09-25T06:47:30.502Z,8.33
2018-09-25T06:50:07.880Z,8.97
2018-09-25T06:52:45.585Z,8.57
2018-09-25T06:55:23.067Z,9.40
2018-09-25T06:58:01.277Z,8.80
2018-09-25T07:00:38.594Z,8.47
2018-09-25T07:03:16.227Z,8.53
2018-09-25T07:05:53.763Z,7.93
2018-09-25T07:08:31.888Z,9.20
2018-09-25T07:11:09.521Z,8.47
2018-09-25T07:13:47.091Z,10.47
2018-09-25T07:16:24.763Z,9.47
2018-09-25T07:19:02.342Z,10.10
2018-09-25T07:21:39.837Z,9.43
2018-09-25T07:24:17.753Z,9.30
2018-09-25T07:26:55.124Z,9.30
2018-09-25T07:29:34.221Z,9.43
2018-09-25T07:32:11.613Z,9.37
2018-09-25T07:34:49.362Z,9.03
2018-09-25T07:37:26.754Z,8.93
2018-09-25T07:40:04.295Z,9.00
2018-09-25T07:42:41.806Z,8.47
2018-09-25T07:45:19.600Z,8.03
2018-09-25T07:47:57.437Z,7.90
2018-09-25T07:50:35.187Z,7.07
2018-09-25T07:53:13.000Z,8.77
2018-09-25T07:55:50.633Z,7.93
2018-09-25T07:58:28.533Z,8.80
2018-09-25T08:01:06.051Z,7.87
2018-09-25T08:03:45.492Z,8.37
2018-09-25T08:06:23.076Z,8.03
2018-09-25T08:09:32.721Z,8.17
2018-09-25T08:12:09.490Z,9.07
2018-09-25T08:14:46.532Z,8.03
2018-09-25T08:17:24.163Z,8.60
2018-09-25T08:20:01.097Z,8.20
2018-09-25T08:22:38.173Z,9.20
2018-09-25T08:25:15.005Z,9.67
2018-09-25T08:27:52.618Z,7.30
2018-09-25T08:30:29.364Z,7.80
2018-09-25T08:33:07.024Z,7.80
2018-09-25T08:35:43.826Z,8.13
2018-09-25T08:38:20.685Z,6.77
2018-09-25T08:40:57.326Z,6.60
2018-09-25T08:43:34.303Z,5.97
2018-09-25T08:46:11.098Z,6.53
2018-09-25T08:48:48.572Z,6.93
2018-09-25T08:51:25.791Z,7.27
2018-09-25T08:54:02.411Z,7.87
2018-09-25T08:56:40.432Z,7.43
2018-09-25T08:59:17.747Z,9.27
2018-09-25T09:01:55.569Z,9.50
2018-09-25T09:04:32.533Z,9.83
2018-09-25T09:07:10.027Z,8.70
2018-09-25T09:09:47.424Z,8.87
2018-09-25T09:12:24.803Z,9.43
2018-09-25T09:15:04.398Z,10.50
2018-09-25T09:17:42.168Z,9.37
2018-09-25T09:20:18.929Z,8.13
2018-09-25T09:22:55.792Z,8.37
2018-09-25T09:25:32.656Z,6.97
2018-09-25T09:28:09.545Z,7.30
2018-09-25T09:30:47.141Z,8.10
2018-09-25T09:33:23.970Z,8.00
2018-09-25T09:36:00.791Z,7.33
2018-09-25T09:38:37.805Z,7.87
2018-09-25T09:41:47.362Z,7.63
2018-09-25T09:44:24.960Z,5.67
2018-09-25T09:47:02.138Z,7.23
2018-09-25T09:49:39.873Z,6.33
2018-09-25T09:52:17.192Z,6.70
2018-09-25T09:54:54.638Z,7.60
2018-09-25T09:57:31.917Z,7.07
2018-09-25T10:00:10.314Z,7.33
2018-09-25T10:02:48.028Z,8.10
2018-09-25T10:05:25.293Z,7.67
2018-09-25T10:08:03.038Z,9.33
2018-09-25T10:10:40.370Z,10.23
2018-09-25T10:13:17.759Z,12.37
2018-09-25T10:15:55.392Z,18.53
2018-09-25T10:18:32.691Z,11.67
2018-09-25T10:21:10.129Z,10.87
2018-09-25T10:23:47.588Z,10.90
2018-09-25T10:26:25.199Z,18.30
2018-09-25T10:29:02.989Z,12.13
2018-09-25T10:31:40.433Z,11.80
2018-09-25T10:34:19.942Z,10.73
2018-09-25T10:36:57.411Z,10.93
2018-09-25T10:39:36.007Z,10.43
2018-09-25T10:42:13.664Z,10.60
2018-09-25T10:44:51.344Z,10.10
2018-09-25T10:47:30.471Z,9.83
2018-09-25T10:50:07.806Z,10.37
2018-09-25T10:52:46.537Z,8.87
2018-09-25T10:55:23.883Z,10.63
2018-09-25T10:58:01.277Z,11.90
2018-09-25T11:00:38.754Z,11.37
2018-09-25T11:03:16.444Z,12.17
2018-09-25T11:05:53.730Z,11.83
2018-09-25T11:08:33.293Z,9.83
2018-09-25T11:11:10.575Z,10.60
2018-09-25T11:17:09.270Z,10.47
2018-09-25T11:19:46.644Z,10.73
2018-09-25T11:22:23.744Z,11.90
2018-09-25T11:25:01.369Z,11.10
2018-09-25T11:27:38.729Z,23.57
2018-09-25T11:30:16.197Z,17.37
2018-09-25T11:32:53.317Z,15.53
2018-09-25T11:35:30.452Z,18.03
2018-09-25T11:42:01.198Z,20.60
2018-09-25T11:44:39.335Z,15.87
2018-09-25T11:47:16.406Z,15.53
2018-09-25T11:49:53.098Z,15.03
2018-09-25T11:52:29.991Z,17.07
2018-09-25T11:55:07.817Z,16.80
2018-09-25T11:57:44.955Z,17.27
2018-09-25T12:03:42.902Z,18.67
2018-09-25T12:09:44.291Z,17.07
2018-09-25T12:12:24.688Z,16.87
2018-09-25T12:15:01.690Z,16.80
2018-09-25T12:17:38.431Z,13.93
2018-09-25T12:20:15.462Z,14.53
2018-09-25T12:22:52.910Z,13.63
2018-09-25T12:25:29.799Z,12.80
2018-09-25T12:28:07.124Z,12.67
2018-09-25T12:30:43.997Z,14.07
2018-09-25T12:33:21.069Z,14.07
2018-09-25T12:35:58.350Z,14.60
2018-09-25T12:38:35.901Z,15.50
2018-09-25T12:41:12.545Z,11.57
2018-09-25T12:43:50.124Z,11.70
2018-09-25T12:46:27.387Z,13.00
2018-09-25T12:49:04.246Z,13.20
2018-09-25T12:51:41.101Z,11.40
2018-09-25T12:54:18.796Z,11.20
2018-09-25T12:56:56.091Z,10.93
2018-09-25T12:59:33.353Z,10.33
2018-09-25T13:02:11.021Z,10.27
2018-09-25T13:04:48.169Z,11.17
2018-09-25T13:07:24.981Z,10.47
2018-09-25T13:10:03.124Z,9.13
2018-09-25T13:12:40.137Z,12.13
2018-09-25T13:15:18.928Z,12.50
2018-09-25T13:17:56.329Z,16.40
2018-09-25T13:20:33.620Z,17.60
2018-09-25T13:23:10.391Z,13.40
2018-09-25T13:25:50.118Z,8.80
2018-09-25T13:28:27.826Z,8.90
2018-09-25T13:31:04.791Z,9.47
2018-09-25T13:33:46.480Z,10.20
2018-09-25T13:36:25.715Z,9.40
2018-09-25T13:39:03.140Z,8.57
2018-09-25T13:41:40.601Z,6.73
2018-09-25T13:44:17.871Z,8.53
2018-09-25T13:46:54.561Z,7.03
2018-09-25T13:49:32.613Z,8.00
2018-09-25T14:03:59.214Z,8.53
2018-09-25T14:10:13.108Z,7.67
2018-09-25T14:12:51.821Z,6.97
2018-09-25T14:15:30.567Z,7.97
2018-09-25T14:18:07.880Z,7.23
2018-09-25T14:20:45.347Z,6.83
2018-09-25T14:23:42.089Z,6.00
2018-09-25T14:26:38.862Z,5.67
2018-09-25T14:29:35.799Z,4.80
2018-09-25T14:32:34.047Z,6.17
2018-09-25T14:35:28.287Z,4.90
2018-09-25T14:41:57.825Z,4.90
2018-09-25T14:44:41.204Z,6.33
2018-09-25T14:47:24.764Z,4.47
2018-09-25T14:50:40.707Z,5.20
2018-09-25T14:53:28.725Z,5.63
2018-09-25T14:56:25.261Z,5.15
2018-09-25T14:59:22.224Z,4.10
2018-09-25T15:02:13.658Z,5.80
2018-09-25T15:05:06.033Z,4.75
2018-09-25T15:08:02.227Z,5.50
2018-09-25T15:10:43.522Z,5.92
2018-09-25T15:13:41.621Z,5.45
2018-09-25T15:16:35.387Z,4.47
2018-09-25T15:19:33.939Z,5.55
2018-09-25T15:22:29.831Z,3.83
2018-09-25T15:25:24.370Z,3.12
2018-09-25T15:28:18.027Z,3.00
2018-09-25T15:31:16.944Z,4.00
2018-09-25T15:33:54.481Z,3.63
2018-09-25T15:36:31.680Z,4.03
2018-09-25T15:39:08.619Z,3.90
2018-09-25T15:41:45.764Z,4.77
2018-09-25T15:44:22.655Z,4.23
2018-09-25T15:47:00.966Z,4.05
2018-09-25T15:49:37.699Z,4.05
2018-09-25T15:52:14.620Z,3.80
2018-09-25T15:54:51.848Z,4.65
2018-09-25T15:57:28.922Z,4.17
2018-09-25T16:00:06.098Z,5.07
2018-09-25T16:02:45.933Z,6.17
2018-09-25T16:05:22.456Z,4.53
2018-09-25T16:07:59.272Z,3.52
2018-09-25T16:10:53.490Z,4.03
2018-09-25T16:13:33.369Z,4.40
2018-09-25T16:16:10.655Z,4.25
2018-09-25T16:18:49.000Z,3.98
2018-09-25T16:21:27.910Z,4.45
2018-09-25T16:24:05.065Z,6.37
2018-09-25T16:26:41.642Z,4.10
2018-09-25T16:29:18.366Z,3.83
2018-09-25T16:31:56.423Z,3.90
2018-09-25T16:34:33.365Z,3.85
2018-09-25T16:37:10.552Z,4.17
2018-09-25T16:39:48.016Z,3.52
2018-09-25T16:42:25.172Z,4.28
2018-09-25T16:45:02.674Z,3.83
2018-09-25T16:47:39.964Z,3.72
2018-09-25T16:50:19.182Z,4.03
2018-09-25T16:52:56.828Z,4.00
2018-09-25T16:55:34.163Z,5.05
2018-09-25T16:58:10.943Z,4.75
2018-09-25T17:00:49.338Z,4.37
2018-09-25T17:03:28.046Z,3.35
2018-09-25T17:06:06.344Z,4.85
2018-09-25T17:08:43.501Z,4.10
2018-09-25T17:11:20.557Z,3.45
2018-09-25T17:13:59.612Z,4.47
2018-09-25T17:16:36.785Z,4.17
2018-09-25T17:19:13.496Z,4.12
2018-09-25T17:21:50.833Z,3.70
2018-09-25T17:24:28.317Z,3.52
2018-09-25T17:27:06.128Z,3.65
2018-09-25T17:29:45.198Z,4.42
2018-09-25T17:32:39.644Z,4.75
2018-09-25T17:35:33.468Z,4.00
2018-09-25T17:38:11.382Z,5.12
2018-09-25T17:40:48.875Z,4.47
2018-09-25T17:43:35.721Z,3.72
2018-09-25T17:46:14.374Z,4.62
2018-09-25T17:48:53.415Z,4.85
2018-09-25T17:51:31.827Z,3.87
2018-09-25T17:54:09.361Z,5.40
2018-09-25T17:56:46.160Z,4.95
2018-09-25T17:59:24.908Z,3.95
2018-09-25T18:02:01.808Z,5.70
2018-09-25T18:04:40.357Z,4.90
2018-09-25T18:10:39.199Z,4.30
2018-09-25T18:13:16.030Z,3.83
2018-09-25T18:15:55.746Z,3.30
2018-09-25T18:18:32.706Z,8.23
2018-09-25T18:21:10.316Z,3.37
2018-09-25T18:23:48.144Z,4.40
2018-09-25T18:26:25.613Z,3.72
2018-09-25T18:32:35.114Z,3.83
2018-09-25T18:35:12.293Z,2.77
2018-09-25T18:37:50.127Z,4.05
2018-09-25T18:40:27.091Z,3.72
2018-09-25T18:43:05.473Z,3.37
2018-09-25T18:45:42.884Z,3.98
2018-09-25T18:48:20.141Z,3.55
2018-09-25T18:50:57.213Z,4.05
2018-09-25T18:53:34.652Z,3.75
2018-09-25T18:56:11.684Z,3.08
2018-09-25T18:58:49.798Z,3.92
2018-09-25T19:01:27.809Z,3.92
2018-09-25T19:04:05.866Z,3.67
2018-09-25T19:06:43.747Z,5.03
2018-09-25T19:09:21.308Z,4.20
2018-09-25T19:11:58.338Z,3.50
2018-09-25T19:14:36.060Z,3.83
2018-09-25T19:17:13.406Z,4.17
2018-09-25T19:19:51.193Z,5.05
2018-09-25T19:22:28.737Z,3.47
2018-09-25T19:25:07.012Z,3.87
2018-09-25T19:27:44.477Z,2.70
2018-09-25T19:30:22.234Z,4.03
2018-09-25T19:32:59.712Z,3.45
2018-09-25T19:35:37.323Z,3.25
2018-09-25T19:38:14.448Z,3.02
2018-09-25T19:40:52.366Z,3.58
2018-09-25T19:43:29.675Z,3.30
2018-09-25T19:46:06.981Z,4.10
2018-09-25T19:48:44.372Z,3.80
2018-09-25T19:51:22.871Z,2.62
2018-09-25T19:54:00.715Z,2.90
2018-09-25T19:56:38.379Z,3.22
2018-09-25T19:59:16.376Z,3.25
2018-09-25T20:01:56.268Z,4.03
2018-09-25T20:04:34.004Z,4.53
2018-09-25T20:07:17.682Z,3.40
2018-09-25T20:09:54.959Z,3.80
2018-09-25T20:12:32.415Z,3.52
2018-09-25T20:15:09.493Z,3.80
2018-09-25T20:17:47.078Z,4.10
2018-09-25T20:20:24.470Z,4.03
2018-09-25T20:23:02.062Z,3.95
2018-09-25T20:25:39.513Z,4.45
2018-09-25T20:28:17.021Z,3.33
2018-09-25T20:30:55.248Z,3.55
2018-09-25T20:33:34.308Z,4.22
2018-09-25T20:36:39.601Z,4.55
2018-09-25T20:39:17.620Z,3.85
2018-09-25T20:41:55.133Z,3.40
2018-09-25T20:44:32.946Z,3.90
2018-09-25T20:47:10.552Z,4.15
2018-09-25T20:49:48.178Z,4.12
2018-09-25T20:52:25.938Z,4.47
2018-09-25T20:55:03.577Z,3.17
2018-09-25T20:57:40.987Z,4.08
2018-09-25T21:00:18.614Z,3.25
2018-09-25T21:02:56.088Z,3.05
2018-09-25T21:05:33.535Z,3.22
2018-09-25T21:08:10.857Z,2.83
2018-09-25T21:10:48.574Z,4.37
2018-09-25T21:13:26.951Z,4.67
2018-09-25T21:16:04.376Z,5.05
2018-09-25T21:18:41.774Z,4.25
2018-09-25T21:21:20.162Z,3.70
2018-09-25T21:23:57.875Z,3.00
2018-09-25T21:26:35.077Z,4.00
2018-09-25T21:29:12.580Z,3.42
2018-09-25T21:31:50.027Z,4.00
2018-09-25T21:34:31.416Z,3.83
2018-09-25T21:37:08.592Z,3.30
2018-09-25T21:39:46.094Z,4.35
2018-09-25T21:42:23.517Z,3.50
2018-09-25T21:45:00.927Z,3.30
2018-09-25T21:47:38.346Z,3.40
2018-09-25T21:50:15.558Z,2.95
2018-09-25T21:52:53.295Z,10.13
2018-09-25T21:55:30.387Z,3.90
2018-09-25T21:58:09.374Z,3.50
2018-09-25T22:00:47.141Z,3.50
2018-09-25T22:03:25.873Z,4.97
2018-09-25T22:06:03.162Z,3.55
2018-09-25T22:08:40.624Z,3.80
2018-09-25T22:11:18.329Z,5.07
2018-09-25T22:13:56.092Z,5.45
2018-09-25T22:16:33.584Z,4.42
2018-09-25T22:19:10.963Z,2.97
2018-09-25T22:21:48.472Z,3.30
2018-09-25T22:24:26.319Z,3.27
2018-09-25T22:27:03.595Z,2.85
2018-09-25T22:29:41.141Z,4.33
2018-09-25T22:32:18.381Z,3.20
2018-09-25T22:34:57.048Z,3.17
2018-09-25T22:37:34.462Z,3.25
2018-09-25T22:40:11.841Z,3.42
2018-09-25T22:42:49.107Z,2.87
2018-09-25T22:45:26.243Z,5.80
2018-09-25T22:48:04.784Z,4.40
2018-09-25T22:50:42.154Z,4.60
2018-09-25T22:53:19.607Z,3.67
2018-09-25T22:59:29.382Z,3.62
2018-09-25T23:02:07.977Z,5.03
2018-09-25T23:04:44.664Z,4.27
2018-09-25T23:07:21.340Z,5.47
2018-09-25T23:09:58.168Z,2.80
2018-09-25T23:15:59.052Z,5.20
2018-09-25T23:18:39.363Z,5.67
2018-09-25T23:21:16.551Z,4.00
2018-09-25T23:23:53.289Z,4.00
2018-09-25T23:26:30.966Z,3.80
2018-09-25T23:29:07.620Z,5.80
2018-09-25T23:31:44.420Z,5.77
2018-09-25T23:34:21.298Z,5.67
2018-09-25T23:36:58.286Z,4.60
2018-09-25T23:39:36.207Z,4.60
2018-09-25T23:42:43.649Z,4.67
2018-09-25T23:49:06.592Z,46.93
2018-09-25T23:51:44.296Z,30.90
2018-09-25T23:54:37.101Z,8.33
2018-09-25T23:57:19.593Z,4.57
2018-09-25T23:59:57.131Z,8.30
